Terminal Aerodrome Forecast
Issued by NWS

Home | Current Version | Previous Version | Graphics & Text | Print | Product List | Glossary On
Versions: 1 2 3 4 5 6 7 8 9 10 11 12 13 14 15 16 17
126
FTUS43 KICT 220520
TAFRSL
TAF
KRSL 220520Z 2206/2306 17010KT P6SM SCT250
     FM221400 18015G21KT P6SM SCT250
     FM221830 18020G28KT P6SM SCT250
     FM230100 17012KT P6SM SCT250=

USA.gov is the U.S. government's official web portal to all federal, state and local government web resources and services.